createdAt,value
2018-04-17T00:00:23.308Z,12.20
2018-04-17T00:01:23.432Z,12.25
2018-04-17T00:02:23.605Z,12.21
2018-04-17T00:03:23.800Z,12.18
2018-04-17T00:04:23.964Z,12.18
2018-04-17T00:05:24.138Z,12.21
2018-04-17T00:06:24.312Z,12.17
2018-04-17T00:07:24.500Z,12.13
2018-04-17T00:08:24.660Z,12.24
2018-04-17T00:09:24.858Z,12.18
2018-04-17T00:10:24.992Z,12.15
2018-04-17T00:11:25.134Z,12.07
2018-04-17T00:12:25.310Z,12.20
2018-04-17T00:13:25.469Z,12.17
2018-04-17T00:14:25.639Z,12.17
2018-04-17T00:15:25.828Z,12.12
2018-04-17T00:16:25.969Z,12.02
2018-04-17T00:17:26.136Z,12.06
2018-04-17T00:18:26.303Z,12.00
2018-04-17T00:19:26.480Z,12.06
2018-04-17T00:20:26.634Z,12.04
2018-04-17T00:21:26.832Z,12.09
2018-04-17T00:22:26.967Z,12.00
2018-04-17T00:23:27.162Z,11.97
2018-04-17T00:24:27.319Z,11.97
2018-04-17T00:25:27.496Z,11.91
2018-04-17T00:26:27.688Z,12.02
2018-04-17T00:27:27.872Z,11.94
2018-04-17T00:28:28.074Z,11.99
2018-04-17T00:29:28.571Z,12.00
2018-04-17T00:30:28.395Z,11.95
2018-04-17T00:31:28.550Z,11.87
2018-04-17T00:32:28.754Z,11.94
2018-04-17T00:33:28.916Z,11.95
2018-04-17T00:34:29.065Z,11.84
2018-04-17T00:35:29.242Z,11.88
2018-04-17T00:36:29.404Z,11.80
2018-04-17T00:37:29.565Z,11.69
2018-04-17T00:38:29.730Z,11.62
2018-04-17T00:39:29.941Z,11.69
2018-04-17T00:40:30.098Z,11.51
2018-04-17T00:41:30.247Z,11.66
2018-04-17T00:42:30.415Z,11.54
2018-04-17T00:43:30.582Z,11.47
2018-04-17T00:44:30.741Z,11.45
2018-04-17T00:45:30.919Z,11.37
2018-04-17T00:46:31.099Z,11.52
2018-04-17T00:47:31.253Z,11.59
2018-04-17T00:48:31.432Z,11.51
2018-04-17T00:49:31.649Z,11.63
2018-04-17T00:50:31.788Z,11.51
2018-04-17T00:51:31.986Z,11.54
2018-04-17T00:52:32.187Z,11.43
2018-04-17T00:53:32.309Z,11.44
2018-04-17T00:54:32.532Z,11.44
2018-04-17T00:55:32.646Z,11.35
2018-04-17T00:56:32.819Z,11.35
2018-04-17T00:57:32.961Z,11.32
2018-04-17T00:58:33.151Z,11.33
2018-04-17T00:59:33.303Z,11.26
2018-04-17T01:00:33.531Z,11.29
2018-04-17T01:01:33.661Z,11.29
2018-04-17T01:02:33.819Z,11.22
2018-04-17T01:03:34.001Z,11.26
2018-04-17T01:04:34.206Z,11.25
2018-04-17T01:05:34.594Z,11.33
2018-04-17T01:06:34.517Z,11.32
2018-04-17T01:07:34.659Z,11.40
2018-04-17T01:08:34.828Z,11.26
2018-04-17T01:09:35.004Z,11.35
2018-04-17T01:10:35.165Z,11.36
2018-04-17T01:11:35.347Z,11.40
2018-04-17T01:12:35.533Z,11.27
2018-04-17T01:13:35.689Z,11.22
2018-04-17T01:14:35.866Z,11.23
2018-04-17T01:15:36.031Z,11.32
2018-04-17T01:16:36.200Z,11.26
2018-04-17T01:17:36.355Z,11.37
2018-04-17T01:18:36.539Z,11.33
2018-04-17T01:19:36.745Z,11.33
2018-04-17T01:20:36.850Z,11.32
2018-04-17T01:21:37.038Z,11.25
2018-04-17T01:22:37.220Z,11.19
2018-04-17T01:23:37.393Z,11.26
2018-04-17T01:24:37.545Z,11.19
2018-04-17T01:25:37.705Z,11.23
2018-04-17T01:26:37.849Z,11.19
2018-04-17T01:27:38.038Z,11.23
2018-04-17T01:28:38.193Z,11.18
2018-04-17T01:29:38.386Z,11.27
2018-04-17T01:30:38.545Z,11.27
2018-04-17T01:31:38.708Z,11.19
2018-04-17T01:32:38.888Z,11.18
2018-04-17T01:33:39.051Z,11.19
2018-04-17T01:34:39.217Z,11.23
2018-04-17T01:35:39.395Z,11.36
2018-04-17T01:36:39.582Z,11.35
2018-04-17T01:37:39.739Z,11.33
2018-04-17T01:38:39.908Z,11.45
2018-04-17T01:39:40.073Z,11.50
2018-04-17T01:40:40.262Z,11.33
2018-04-17T01:41:40.694Z,11.33
2018-04-17T01:42:40.599Z,11.37
2018-04-17T01:43:40.790Z,11.22
2018-04-17T01:44:40.954Z,11.22
2018-04-17T01:45:41.125Z,11.10
2018-04-17T01:46:41.309Z,10.99
2018-04-17T01:47:41.463Z,11.00
2018-04-17T01:48:41.633Z,10.93
2018-04-17T01:49:41.794Z,10.97
2018-04-17T01:50:41.997Z,10.93
2018-04-17T01:51:42.133Z,11.02
2018-04-17T01:52:42.289Z,11.02
2018-04-17T01:53:42.462Z,10.96
2018-04-17T01:54:42.650Z,10.97
2018-04-17T01:55:42.799Z,11.00
2018-04-17T01:56:42.973Z,11.05
2018-04-17T01:57:43.140Z,11.00
2018-04-17T01:58:43.305Z,10.97
2018-04-17T01:59:43.530Z,10.99
2018-04-17T02:00:43.633Z,11.00
2018-04-17T02:01:43.815Z,11.04
2018-04-17T02:02:43.995Z,11.02
2018-04-17T02:03:44.156Z,10.99
2018-04-17T02:04:44.296Z,10.94
2018-04-17T02:05:44.524Z,10.82
2018-04-17T02:06:44.649Z,10.87
2018-04-17T02:07:44.805Z,10.72
2018-04-17T02:08:45.017Z,10.76
2018-04-17T02:09:45.186Z,10.82
2018-04-17T02:10:45.327Z,10.69
2018-04-17T02:11:45.521Z,10.79
2018-04-17T02:12:45.658Z,10.74
2018-04-17T02:13:45.812Z,10.78
2018-04-17T02:14:46.032Z,10.71
2018-04-17T02:15:46.178Z,10.67
2018-04-17T02:16:46.348Z,10.67
2018-04-17T02:17:46.485Z,10.72
2018-04-17T02:18:46.664Z,10.71
2018-04-17T02:19:46.820Z,10.71
2018-04-17T02:20:46.991Z,10.82
2018-04-17T02:21:47.166Z,10.71
2018-04-17T02:22:47.333Z,10.76
2018-04-17T02:23:47.521Z,10.74
2018-04-17T02:24:47.689Z,10.92
2018-04-17T02:25:47.836Z,10.81
2018-04-17T02:26:47.999Z,10.76
2018-04-17T02:27:48.188Z,10.81
2018-04-17T02:28:48.403Z,10.76
2018-04-17T02:29:48.511Z,10.82
2018-04-17T02:30:48.690Z,10.71
2018-04-17T02:31:48.884Z,10.81
2018-04-17T02:32:49.003Z,10.90
2018-04-17T02:33:49.168Z,10.94
2018-04-17T02:34:49.339Z,10.84
2018-04-17T02:35:49.511Z,10.78
2018-04-17T02:36:49.679Z,10.84
2018-04-17T02:37:49.846Z,10.79
2018-04-17T02:38:50.011Z,10.84
2018-04-17T02:39:50.183Z,10.84
2018-04-17T02:40:50.370Z,10.78
2018-04-17T02:41:50.524Z,10.82
2018-04-17T02:42:50.717Z,10.93
2018-04-17T02:43:50.888Z,10.87
2018-04-17T02:44:51.081Z,10.84
2018-04-17T02:45:51.247Z,10.92
2018-04-17T02:46:51.422Z,10.93
2018-04-17T02:47:51.581Z,10.92
2018-04-17T02:48:51.772Z,10.92
2018-04-17T02:49:51.938Z,10.76
2018-04-17T02:50:52.106Z,10.92
2018-04-17T02:51:52.285Z,10.87
2018-04-17T02:52:52.464Z,10.89
2018-04-17T02:53:52.643Z,10.84
2018-04-17T02:54:52.823Z,10.89
2018-04-17T02:55:53.007Z,10.79
2018-04-17T02:56:53.209Z,10.79
2018-04-17T02:57:53.376Z,10.89
2018-04-17T02:58:53.562Z,10.75
2018-04-17T02:59:53.728Z,10.78
2018-04-17T03:00:54.702Z,10.72
2018-04-17T03:01:54.069Z,10.63
2018-04-17T03:02:54.245Z,10.61
2018-04-17T03:03:54.440Z,10.51
2018-04-17T03:04:54.614Z,10.53
2018-04-17T03:05:54.799Z,10.49
2018-04-17T03:06:54.967Z,10.44
2018-04-17T03:07:55.145Z,10.49
2018-04-17T03:08:55.325Z,10.35
2018-04-17T03:09:55.509Z,10.34
2018-04-17T03:10:55.671Z,10.40
2018-04-17T03:11:55.855Z,10.53
2018-04-17T03:12:56.030Z,10.41
2018-04-17T03:13:56.201Z,10.49
2018-04-17T03:14:56.367Z,10.46
2018-04-17T03:15:56.545Z,10.54
2018-04-17T03:16:56.730Z,10.59
2018-04-17T03:17:56.906Z,10.60
2018-04-17T03:18:57.085Z,10.57
2018-04-17T03:19:57.268Z,10.63
2018-04-17T03:20:57.443Z,10.64
2018-04-17T03:21:57.618Z,10.61
2018-04-17T03:22:57.791Z,10.61
2018-04-17T03:24:58.140Z,10.53
2018-04-17T03:25:58.328Z,10.51
2018-04-17T03:26:58.507Z,10.41
2018-04-17T03:27:58.682Z,10.30
2018-04-17T03:28:58.861Z,10.38
2018-04-17T03:29:59.039Z,10.48
2018-04-17T03:30:59.214Z,10.49
2018-04-17T03:31:59.392Z,10.49
2018-04-17T03:32:59.573Z,10.56
2018-04-17T03:33:59.755Z,10.53
2018-04-17T03:34:59.920Z,10.57
2018-04-17T03:36:00.081Z,10.51
2018-04-17T03:37:00.265Z,10.56
2018-04-17T03:38:00.432Z,10.48
2018-04-17T03:39:00.612Z,10.44
2018-04-17T03:40:00.790Z,10.53
2018-04-17T03:41:00.966Z,10.46
2018-04-17T03:42:01.147Z,10.51
2018-04-17T03:43:01.323Z,10.53
2018-04-17T03:44:01.498Z,10.42
2018-04-17T03:45:01.673Z,10.49
2018-04-17T03:46:01.853Z,10.48
2018-04-17T03:47:02.033Z,10.44
2018-04-17T03:48:02.206Z,10.48
2018-04-17T03:49:02.387Z,10.44
2018-04-17T03:50:02.564Z,10.40
2018-04-17T03:51:02.736Z,10.35
2018-04-17T03:52:02.912Z,10.30
2018-04-17T03:53:03.100Z,10.28
2018-04-17T03:54:03.263Z,10.23
2018-04-17T03:55:03.441Z,10.20
2018-04-17T03:56:03.617Z,10.23
2018-04-17T03:57:03.799Z,10.28
2018-04-17T03:58:03.966Z,10.22
2018-04-17T03:59:04.152Z,10.15
2018-04-17T04:00:04.326Z,9.98
2018-04-17T04:01:04.502Z,9.95
2018-04-17T04:02:04.681Z,9.92
2018-04-17T04:03:04.854Z,10.05
2018-04-17T04:04:05.044Z,10.13
2018-04-17T04:05:05.205Z,10.04
2018-04-17T04:06:05.374Z,10.20
2018-04-17T04:07:05.558Z,10.09
2018-04-17T04:08:05.723Z,10.15
2018-04-17T04:09:05.902Z,10.19
2018-04-17T04:10:06.068Z,10.35
2018-04-17T04:11:06.248Z,10.28
2018-04-17T04:12:06.427Z,10.34
2018-04-17T04:13:06.598Z,10.40
2018-04-17T04:14:06.781Z,10.44
2018-04-17T04:15:06.972Z,10.34
2018-04-17T04:16:07.135Z,10.30
2018-04-17T04:17:07.315Z,10.20
2018-04-17T04:18:07.491Z,10.17
2018-04-17T04:19:07.669Z,10.12
2018-04-17T04:20:07.851Z,10.13
2018-04-17T04:21:08.007Z,10.05
2018-04-17T04:22:08.206Z,10.10
2018-04-17T04:23:08.372Z,9.91
2018-04-17T04:24:08.547Z,9.84
2018-04-17T04:25:08.725Z,9.86
2018-04-17T04:26:08.891Z,9.84
2018-04-17T04:27:09.068Z,9.77
2018-04-17T04:28:09.259Z,9.82
2018-04-17T04:29:09.432Z,9.79
2018-04-17T04:30:09.600Z,9.77
2018-04-17T04:31:09.820Z,9.82
2018-04-17T04:32:09.952Z,9.79
2018-04-17T04:33:10.124Z,9.68
2018-04-17T04:35:10.464Z,9.72
2018-04-17T04:36:10.644Z,9.61
2018-04-17T04:37:10.818Z,9.73
2018-04-17T04:38:11.008Z,9.77
2018-04-17T04:39:11.164Z,9.74
2018-04-17T04:40:11.344Z,9.66
2018-04-17T04:41:11.513Z,9.79
2018-04-17T04:42:11.687Z,9.74
2018-04-17T04:43:11.864Z,9.82
2018-04-17T04:44:12.046Z,9.66
2018-04-17T04:45:12.241Z,9.83
2018-04-17T04:46:12.401Z,9.89
2018-04-17T04:47:12.581Z,9.89
2018-04-17T04:48:12.760Z,9.86
2018-04-17T04:49:12.944Z,9.84
2018-04-17T04:50:13.112Z,9.91
2018-04-17T04:51:13.292Z,9.92
2018-04-17T04:52:13.481Z,9.86
2018-04-17T04:53:13.662Z,9.98
2018-04-17T04:54:13.831Z,9.99
2018-04-17T04:55:14.019Z,9.95
2018-04-17T04:56:14.192Z,9.92
2018-04-17T04:57:14.377Z,10.04
2018-04-17T04:58:14.539Z,9.97
2018-04-17T04:59:14.707Z,9.99
2018-04-17T05:00:14.881Z,10.04
2018-04-17T05:01:15.075Z,10.09
2018-04-17T05:02:15.242Z,10.09
2018-04-17T05:03:15.442Z,10.05
2018-04-17T05:04:15.620Z,10.10
2018-04-17T05:05:15.807Z,10.07
2018-04-17T05:06:15.984Z,10.16
2018-04-17T05:07:16.143Z,10.22
2018-04-17T05:08:16.351Z,10.09
2018-04-17T05:09:16.483Z,10.13
2018-04-17T05:10:16.656Z,10.09
2018-04-17T05:11:16.832Z,10.20
2018-04-17T05:12:17.012Z,10.26
2018-04-17T05:13:17.197Z,10.38
2018-04-17T05:14:17.374Z,10.35
2018-04-17T05:15:17.559Z,10.38
2018-04-17T05:16:17.729Z,10.40
2018-04-17T05:17:17.901Z,10.40
2018-04-17T05:18:18.093Z,10.56
2018-04-17T05:19:18.260Z,10.49
2018-04-17T05:20:18.439Z,10.61
2018-04-17T05:21:18.637Z,10.67
2018-04-17T05:22:18.817Z,10.60
2018-04-17T05:23:18.996Z,10.79
2018-04-17T05:24:19.179Z,10.71
2018-04-17T05:25:19.357Z,10.76
2018-04-17T05:26:19.532Z,10.82
2018-04-17T05:27:19.719Z,10.78
2018-04-17T05:28:19.912Z,10.76
2018-04-17T05:29:20.074Z,10.86
2018-04-17T05:30:20.252Z,10.78
2018-04-17T05:31:20.459Z,10.68
2018-04-17T05:32:20.622Z,10.75
2018-04-17T05:33:20.794Z,10.76
2018-04-17T05:34:20.981Z,10.75
2018-04-17T05:35:21.157Z,11.18
2018-04-17T05:36:21.331Z,11.41
2018-04-17T05:37:21.501Z,11.78
2018-04-17T05:38:21.680Z,12.04
2018-04-17T05:39:21.860Z,12.28
2018-04-17T05:40:22.040Z,12.27
2018-04-17T05:41:22.492Z,12.53
2018-04-17T05:42:22.399Z,12.60
2018-04-17T05:43:22.580Z,12.85
2018-04-17T05:44:22.760Z,13.25
2018-04-17T05:45:22.939Z,13.49
2018-04-17T05:46:23.120Z,13.72
2018-04-17T05:47:23.299Z,13.75
2018-04-17T05:48:23.493Z,13.67
2018-04-17T05:49:23.663Z,13.77
2018-04-17T05:50:23.843Z,13.89
2018-04-17T05:51:24.014Z,13.89
2018-04-17T05:52:24.212Z,13.72
2018-04-17T05:53:24.395Z,13.81
2018-04-17T05:54:24.578Z,13.37
2018-04-17T05:55:24.758Z,13.68
2018-04-17T05:56:24.940Z,13.87
2018-04-17T05:57:25.125Z,13.72
2018-04-17T05:58:25.315Z,13.18
2018-04-17T05:59:25.493Z,13.11
2018-04-17T06:00:25.680Z,12.95
2018-04-17T06:01:25.861Z,13.00
2018-04-17T06:02:26.281Z,12.67
2018-04-17T06:03:26.231Z,12.67
2018-04-17T06:04:26.415Z,12.73
2018-04-17T06:05:26.599Z,12.76
2018-04-17T06:06:26.784Z,12.90
2018-04-17T06:07:26.961Z,12.93
2018-04-17T06:08:27.147Z,12.62
2018-04-17T06:10:27.504Z,12.22
2018-04-17T06:11:27.690Z,12.29
2018-04-17T06:12:27.878Z,12.22
2018-04-17T06:13:28.057Z,12.36
2018-04-17T06:14:28.237Z,12.28
2018-04-17T06:15:28.423Z,12.27
2018-04-17T06:16:28.605Z,12.46
2018-04-17T06:17:28.785Z,12.43
2018-04-17T06:18:28.965Z,12.24
2018-04-17T06:19:29.149Z,12.39
2018-04-17T06:20:29.336Z,12.39
2018-04-17T06:21:29.512Z,12.35
2018-04-17T06:22:29.702Z,12.29
2018-04-17T06:23:29.884Z,12.18
2018-04-17T06:24:30.085Z,12.43
2018-04-17T06:25:30.244Z,12.46
2018-04-17T06:26:30.420Z,12.42
2018-04-17T06:27:30.601Z,12.49
2018-04-17T06:28:30.788Z,12.49
2018-04-17T06:29:30.971Z,12.67
2018-04-17T06:30:31.135Z,13.28
2018-04-17T06:31:31.317Z,13.99
2018-04-17T06:32:31.505Z,14.47
2018-04-17T06:33:31.681Z,15.00
2018-04-17T06:34:31.865Z,15.15
2018-04-17T06:35:32.046Z,15.14
2018-04-17T06:36:32.479Z,14.94
2018-04-17T06:37:32.410Z,15.22
2018-04-17T06:38:32.600Z,15.54
2018-04-17T06:39:32.775Z,15.97
2018-04-17T06:40:32.962Z,16.05
2018-04-17T06:41:33.152Z,16.46
2018-04-17T06:42:33.330Z,16.66
2018-04-17T06:43:33.511Z,16.39
2018-04-17T06:44:33.698Z,16.36
2018-04-17T06:45:33.884Z,15.97
2018-04-17T06:46:34.070Z,16.28
2018-04-17T06:47:34.309Z,16.16
2018-04-17T06:48:34.434Z,16.23
2018-04-17T06:49:34.624Z,16.58
2018-04-17T06:50:34.807Z,16.68
2018-04-17T06:51:34.985Z,16.83
2018-04-17T06:52:35.188Z,16.97
2018-04-17T06:53:35.362Z,17.24
2018-04-17T06:54:35.547Z,17.42
2018-04-17T06:55:35.735Z,17.54
2018-04-17T06:56:35.909Z,17.48
2018-04-17T06:57:36.095Z,17.65
2018-04-17T06:58:36.278Z,17.01
2018-04-17T06:59:36.471Z,17.15
2018-04-17T07:00:36.652Z,17.30
2018-04-17T07:01:36.832Z,17.49
2018-04-17T07:02:37.020Z,17.86
2018-04-17T07:03:37.210Z,17.56
2018-04-17T07:04:37.388Z,17.46
2018-04-17T07:05:37.573Z,17.15
2018-04-17T07:06:37.768Z,17.45
2018-04-17T07:07:37.957Z,17.59
2018-04-17T07:08:38.130Z,17.94
2018-04-17T07:09:38.324Z,17.89
2018-04-17T07:10:38.508Z,17.74
2018-04-17T07:11:38.727Z,18.03
2018-04-17T07:12:38.883Z,18.01
2018-04-17T07:13:39.067Z,18.04
2018-04-17T07:14:39.248Z,18.15
2018-04-17T07:15:39.436Z,18.08
2018-04-17T07:16:39.619Z,18.47
2018-04-17T07:17:39.806Z,18.62
2018-04-17T07:18:39.991Z,18.58
2018-04-17T07:19:40.187Z,18.73
2018-04-17T07:20:40.367Z,18.80
2018-04-17T07:21:40.550Z,18.25
2018-04-17T07:22:40.741Z,18.84
2018-04-17T07:23:40.949Z,18.96
2018-04-17T07:24:41.106Z,18.31
2018-04-17T07:25:41.297Z,18.44
2018-04-17T07:26:41.492Z,18.60
2018-04-17T07:27:41.673Z,18.33
2018-04-17T07:28:41.862Z,17.86
2018-04-17T07:29:42.043Z,17.27
2018-04-17T07:30:42.229Z,17.54
2018-04-17T07:31:42.664Z,17.31
2018-04-17T07:32:42.603Z,17.41
2018-04-17T07:33:42.805Z,17.14
2018-04-17T07:34:42.999Z,17.31
2018-04-17T07:35:43.159Z,17.45
2018-04-17T07:36:43.341Z,17.52
2018-04-17T07:37:43.528Z,17.52
2018-04-17T07:38:43.716Z,17.54
2018-04-17T07:39:43.905Z,17.83
2018-04-17T07:40:44.094Z,18.05
2018-04-17T07:41:44.277Z,17.94
2018-04-17T07:42:44.466Z,17.98
2018-04-17T07:43:44.653Z,17.64
2018-04-17T07:44:44.839Z,17.89
2018-04-17T07:45:45.089Z,18.31
2018-04-17T07:46:45.226Z,18.62
2018-04-17T07:47:45.500Z,19.22
2018-04-17T07:48:45.644Z,19.24
2018-04-17T07:49:45.775Z,18.92
2018-04-17T07:50:45.961Z,18.77
2018-04-17T07:51:46.103Z,18.44
2018-04-17T07:52:46.262Z,18.71
2018-04-17T07:53:46.432Z,18.71
2018-04-17T07:54:46.617Z,18.74
2018-04-17T07:55:46.894Z,19.36
2018-04-17T07:56:46.989Z,18.93
2018-04-17T07:57:47.412Z,18.88
2018-04-17T07:58:47.417Z,19.26
2018-04-17T07:59:47.535Z,19.31
2018-04-17T08:00:47.712Z,19.66
2018-04-17T08:01:47.897Z,19.88
2018-04-17T08:02:48.072Z,19.30
2018-04-17T08:03:48.257Z,19.26
2018-04-17T08:04:48.444Z,19.29
2018-04-17T08:05:48.624Z,19.73
2018-04-17T08:06:48.813Z,19.99
2018-04-17T08:07:48.976Z,19.84
2018-04-17T08:08:49.189Z,20.07
2018-04-17T08:09:49.391Z,20.04
2018-04-17T08:10:49.521Z,19.31
2018-04-17T08:11:49.714Z,19.45
2018-04-17T08:13:50.040Z,19.31
2018-04-17T08:14:50.243Z,19.40
2018-04-17T08:15:50.407Z,19.31
2018-04-17T08:16:50.573Z,19.74
2018-04-17T08:17:50.779Z,19.74
2018-04-17T08:18:50.940Z,20.02
2018-04-17T08:19:51.116Z,20.24
2018-04-17T08:20:51.272Z,19.84
2018-04-17T08:21:51.495Z,19.81
2018-04-17T08:22:51.723Z,19.92
2018-04-17T08:23:51.863Z,20.03
2018-04-17T08:24:52.062Z,20.25
2018-04-17T08:25:52.309Z,20.56
2018-04-17T08:26:53.292Z,20.74
2018-04-17T08:27:52.683Z,21.05
2018-04-17T08:28:52.865Z,21.22
2018-04-17T08:29:52.993Z,21.07
2018-04-17T08:30:53.257Z,20.43
2018-04-17T08:31:53.397Z,20.82
2018-04-17T08:32:53.563Z,21.07
2018-04-17T08:33:53.729Z,20.99
2018-04-17T08:34:53.914Z,21.05
2018-04-17T08:35:54.104Z,20.34
2018-04-17T08:36:54.372Z,20.26
2018-04-17T08:37:54.436Z,20.13
2018-04-17T08:38:54.607Z,20.25
2018-04-17T08:39:54.784Z,20.67
2018-04-17T08:40:54.961Z,20.04
2018-04-17T08:41:55.133Z,19.95
2018-04-17T08:42:55.310Z,20.09
2018-04-17T08:43:56.356Z,20.74
2018-04-17T08:44:56.292Z,20.95
2018-04-17T08:45:55.857Z,21.07
2018-04-17T08:47:56.261Z,19.91
2018-04-17T08:48:56.451Z,20.50
2018-04-17T08:49:56.571Z,20.72
2018-04-17T08:50:56.776Z,21.24
2018-04-17T08:51:57.802Z,20.47
2018-04-17T08:52:57.194Z,20.58
2018-04-17T08:53:57.397Z,21.02
2018-04-17T08:54:57.588Z,21.39
2018-04-17T08:55:57.738Z,21.70
2018-04-17T08:56:57.936Z,21.95
2018-04-17T08:57:58.097Z,22.11
2018-04-17T08:58:58.291Z,21.39
2018-04-17T08:59:58.553Z,20.02
2018-04-17T09:00:58.684Z,19.88
2018-04-17T09:01:58.970Z,20.44
2018-04-17T09:02:59.052Z,21.02
2018-04-17T09:03:59.288Z,21.42
2018-04-17T09:04:59.411Z,21.61
2018-04-17T09:05:59.634Z,21.60
2018-04-17T09:06:59.803Z,21.60
2018-04-17T09:07:59.923Z,21.73
2018-04-17T09:09:00.103Z,21.42
2018-04-17T09:10:00.309Z,21.46
2018-04-17T09:11:00.538Z,21.85
2018-04-17T09:12:00.738Z,22.26
2018-04-17T09:13:00.821Z,22.39
2018-04-17T09:14:00.993Z,22.47
2018-04-17T09:15:01.155Z,22.94
2018-04-17T09:16:01.336Z,22.98
2018-04-17T09:17:01.555Z,22.47
2018-04-17T09:18:01.713Z,22.50
2018-04-17T09:19:01.862Z,22.99
2018-04-17T09:20:02.040Z,22.44
2018-04-17T09:21:02.210Z,22.80
2018-04-17T09:22:02.405Z,21.83
2018-04-17T09:23:02.604Z,21.51
2018-04-17T09:24:02.767Z,21.67
2018-04-17T09:25:02.930Z,22.25
2018-04-17T09:26:03.122Z,22.57
2018-04-17T09:27:03.282Z,22.90
2018-04-17T09:28:03.512Z,23.37
2018-04-17T09:29:03.668Z,23.77
2018-04-17T09:30:03.839Z,24.38
2018-04-17T09:31:04.003Z,24.53
2018-04-17T09:32:04.157Z,24.74
2018-04-17T09:33:04.401Z,24.08
2018-04-17T09:34:04.551Z,23.76
2018-04-17T09:35:04.756Z,23.59
2018-04-17T09:36:04.992Z,23.61
2018-04-17T09:37:05.111Z,23.09
2018-04-17T09:38:05.268Z,21.98
2018-04-17T09:39:05.454Z,22.90
2018-04-17T09:40:05.623Z,23.46
2018-04-17T09:41:05.858Z,23.92
2018-04-17T09:42:06.050Z,24.50
2018-04-17T09:43:06.199Z,24.54
2018-04-17T09:44:06.372Z,24.95
2018-04-17T09:45:06.601Z,25.04
2018-04-17T09:46:06.738Z,24.98
2018-04-17T09:47:06.940Z,24.84
2018-04-17T09:48:07.163Z,24.66
2018-04-17T09:49:07.446Z,24.99
2018-04-17T09:50:08.321Z,25.16
2018-04-17T09:51:07.740Z,25.23
2018-04-17T09:52:08.200Z,24.68
2018-04-17T09:53:08.037Z,24.74
2018-04-17T09:54:08.368Z,25.31
2018-04-17T09:55:08.475Z,25.14
2018-04-17T09:56:08.638Z,25.21
2018-04-17T09:57:08.973Z,25.28
2018-04-17T09:58:09.080Z,24.73
2018-04-17T09:59:09.269Z,24.74
2018-04-17T10:00:09.958Z,24.29
2018-04-17T10:01:09.600Z,24.47
2018-04-17T10:02:09.856Z,24.60
2018-04-17T10:03:10.025Z,24.63
2018-04-17T10:04:10.142Z,24.13
2018-04-17T10:05:10.376Z,24.03
2018-04-17T10:06:10.506Z,24.06
2018-04-17T10:07:10.717Z,24.58
2018-04-17T10:08:10.942Z,24.61
2018-04-17T10:09:11.171Z,24.80
2018-04-17T10:10:11.365Z,25.03
2018-04-17T10:11:11.533Z,25.31
2018-04-17T10:12:11.705Z,25.25
2018-04-17T10:13:12.048Z,24.96
2018-04-17T10:14:12.146Z,24.86
2018-04-17T10:15:12.263Z,25.48
2018-04-17T10:16:12.496Z,25.55
2018-04-17T10:17:12.742Z,25.29
2018-04-17T10:18:12.818Z,24.20
2018-04-17T10:19:12.937Z,23.84
2018-04-17T10:20:13.141Z,24.39
2018-04-17T10:21:13.387Z,24.89
2018-04-17T10:22:13.454Z,25.01
2018-04-17T10:23:13.872Z,25.23
2018-04-17T10:24:13.845Z,25.62
2018-04-17T10:25:14.109Z,24.96
2018-04-17T10:26:14.256Z,23.62
2018-04-17T10:27:14.488Z,24.08
2018-04-17T10:28:14.639Z,23.08
2018-04-17T10:29:14.801Z,22.36
2018-04-17T10:30:15.051Z,22.17
2018-04-17T10:31:15.134Z,22.96
2018-04-17T10:32:15.381Z,23.56
2018-04-17T10:33:15.494Z,23.92
2018-04-17T10:34:15.688Z,24.14
2018-04-17T10:35:15.939Z,24.18
2018-04-17T10:36:16.019Z,24.65
2018-04-17T10:37:16.222Z,24.57
2018-04-17T10:38:16.592Z,24.86
2018-04-17T10:39:16.583Z,25.07
2018-04-17T10:40:16.774Z,25.28
2018-04-17T10:41:16.942Z,24.85
2018-04-17T10:42:17.163Z,24.78
2018-04-17T10:43:17.340Z,24.99
2018-04-17T10:44:17.530Z,24.54
2018-04-17T10:45:17.664Z,24.45
2018-04-17T10:46:17.875Z,23.63
2018-04-17T10:47:18.286Z,24.14
2018-04-17T10:48:18.238Z,24.11
2018-04-17T10:49:18.404Z,24.42
2018-04-17T10:50:18.651Z,24.47
2018-04-17T10:51:18.800Z,24.16
2018-04-17T10:52:19.022Z,24.01
2018-04-17T10:53:19.191Z,23.65
2018-04-17T10:54:19.425Z,23.28
2018-04-17T10:55:19.574Z,22.23
2018-04-17T10:56:19.777Z,21.92
2018-04-17T10:57:19.947Z,21.00
2018-04-17T10:58:21.341Z,21.39
2018-04-17T10:59:20.422Z,21.05
2018-04-17T11:00:20.543Z,21.22
2018-04-17T11:01:20.729Z,21.29
2018-04-17T11:02:20.975Z,21.45
2018-04-17T11:03:21.159Z,21.77
2018-04-17T11:04:21.329Z,21.57
2018-04-17T11:05:21.495Z,22.02
2018-04-17T11:06:21.651Z,22.02
2018-04-17T11:07:21.929Z,21.88
2018-04-17T11:08:22.417Z,21.95
2018-04-17T11:09:22.235Z,21.43
2018-04-17T11:10:28.942Z,21.95
2018-04-17T11:11:22.591Z,22.47
2018-04-17T11:12:22.767Z,22.80
2018-04-17T11:13:22.955Z,22.90
2018-04-17T11:14:23.436Z,22.96
2018-04-17T11:15:23.377Z,23.06
2018-04-17T11:16:23.593Z,23.10
2018-04-17T11:17:23.718Z,23.23
2018-04-17T11:18:23.924Z,23.27
2018-04-17T11:19:24.146Z,23.39
2018-04-17T11:20:24.335Z,23.51
2018-04-17T11:21:24.461Z,23.58
2018-04-17T11:22:24.663Z,22.94
2018-04-17T11:23:24.955Z,22.98
2018-04-17T11:24:25.090Z,23.06
2018-04-17T11:25:25.399Z,22.78
2018-04-17T11:26:25.488Z,22.53
2018-04-17T11:27:25.938Z,22.14
2018-04-17T11:28:25.880Z,22.22
2018-04-17T11:29:26.070Z,22.30
2018-04-17T11:30:26.454Z,22.47
2018-04-17T11:31:26.404Z,22.84
2018-04-17T11:33:26.784Z,22.59
2018-04-17T11:34:26.995Z,22.36
2018-04-17T11:35:27.114Z,22.62
2018-04-17T11:36:27.274Z,22.76
2018-04-17T11:37:27.724Z,23.32
2018-04-17T11:38:27.643Z,23.05
2018-04-17T11:39:27.827Z,22.28
2018-04-17T11:40:28.039Z,22.29
2018-04-17T11:41:28.214Z,21.42
2018-04-17T11:42:28.475Z,21.46
2018-04-17T11:43:28.588Z,21.64
2018-04-17T11:44:28.774Z,22.10
2018-04-17T11:45:29.829Z,22.13
2018-04-17T11:46:29.154Z,22.55
2018-04-17T11:47:29.793Z,22.75
2018-04-17T11:48:29.516Z,22.90
2018-04-17T11:49:29.856Z,23.28
2018-04-17T11:50:29.906Z,23.02
2018-04-17T11:51:30.154Z,22.70
2018-04-17T11:52:30.280Z,23.25
2018-04-17T11:53:30.447Z,23.23
2018-04-17T11:54:30.624Z,23.25
2018-04-17T11:55:30.798Z,23.10
2018-04-17T11:56:30.991Z,23.37
2018-04-17T11:57:31.272Z,22.91
2018-04-17T11:58:31.366Z,22.69
2018-04-17T11:59:31.549Z,22.76
2018-04-17T12:00:31.711Z,22.72
2018-04-17T12:01:31.908Z,22.66
2018-04-17T12:02:32.164Z,22.17
2018-04-17T12:03:32.296Z,22.26
2018-04-17T12:04:32.513Z,22.68
2018-04-17T12:05:32.695Z,22.99
2018-04-17T12:06:32.862Z,23.10
2018-04-17T12:07:33.361Z,22.93
2018-04-17T12:08:33.208Z,22.51
2018-04-17T12:09:33.391Z,22.18
2018-04-17T12:10:33.561Z,22.17
2018-04-17T12:11:33.794Z,22.17
2018-04-17T12:12:33.939Z,21.92
2018-04-17T12:13:34.241Z,21.96
2018-04-17T12:14:34.378Z,21.77
2018-04-17T12:15:34.530Z,21.95
2018-04-17T12:16:34.654Z,21.99
2018-04-17T12:17:34.878Z,22.29
2018-04-17T12:18:35.046Z,22.36
2018-04-17T12:19:35.234Z,22.75
2018-04-17T12:20:35.885Z,22.91
2018-04-17T12:21:35.576Z,22.99
2018-04-17T12:22:35.743Z,22.78
2018-04-17T12:23:35.890Z,22.14
2018-04-17T12:24:36.092Z,21.99
2018-04-17T12:25:36.306Z,21.89
2018-04-17T12:26:36.426Z,22.11
2018-04-17T12:27:36.628Z,22.30
2018-04-17T12:28:36.814Z,22.62
2018-04-17T12:29:37.103Z,22.66
2018-04-17T12:30:37.201Z,22.65
2018-04-17T12:31:37.354Z,22.43
2018-04-17T12:32:37.623Z,22.30
2018-04-17T12:33:37.690Z,22.53
2018-04-17T12:34:38.187Z,22.62
2018-04-17T12:35:38.081Z,22.78
2018-04-17T12:36:38.213Z,22.91
2018-04-17T12:38:38.571Z,22.87
2018-04-17T12:39:38.732Z,23.20
2018-04-17T12:40:38.913Z,23.17
2018-04-17T12:41:39.090Z,22.69
2018-04-17T12:42:39.308Z,23.10
2018-04-17T12:43:39.469Z,23.31
2018-04-17T12:44:39.630Z,23.47
2018-04-17T12:45:39.784Z,23.73
2018-04-17T12:46:39.993Z,23.93
2018-04-17T12:48:40.308Z,23.66
2018-04-17T12:49:40.498Z,23.31
2018-04-17T12:50:40.705Z,23.41
2018-04-17T12:51:40.893Z,23.40
2018-04-17T12:52:41.091Z,23.36
2018-04-17T12:53:41.227Z,23.32
2018-04-17T12:54:41.417Z,23.46
2018-04-17T12:55:41.605Z,23.55
2018-04-17T12:56:41.755Z,23.68
2018-04-17T12:57:41.947Z,23.87
2018-04-17T12:58:42.129Z,23.83
2018-04-17T12:59:42.363Z,23.81
2018-04-17T13:00:43.646Z,23.95
2018-04-17T13:01:42.704Z,23.92
2018-04-17T13:02:43.082Z,23.62
2018-04-17T13:03:43.130Z,23.23